HL1163 RKNY-RKNY
Flight info
| Callsign | HL1163 |
|---|---|
| Flight time | 0h 5m |
| Altitude | 2000 |
| Route | RKNY TRF |
| Aircraft | C172/L-SDE3/L |
Departure
| Time | 2026-05-07 06:05 |
|---|---|
| Airport | Yangyang International Airport (RKNY) |
Arrival
| Time | 2026-05-07 06:11 |
|---|---|
| Airport | Yangyang International Airport (RKNY) |
| Time | Latitude | Longitude | Altitude | Speed | Heading |
|---|---|---|---|---|---|
| 2026-05-07 05:41 | 38.06099 | 128.66438 | 260 ft | 0 kts | 46° |
| 2026-05-07 05:58 | 38.06102 | 128.66446 | 259 ft | 3 kts | 66° |
| 2026-05-07 05:58 | 38.06118 | 128.66483 | 259 ft | 5 kts | 97° |
| 2026-05-07 05:58 | 38.06094 | 128.66513 | 258 ft | 4 kts | 140° |
| 2026-05-07 05:58 | 38.06069 | 128.66539 | 258 ft | 4 kts | 140° |
| 2026-05-07 05:59 | 38.06052 | 128.66574 | 257 ft | 6 kts | 88° |
| 2026-05-07 05:59 | 38.06078 | 128.66626 | 257 ft | 8 kts | 54° |
| 2026-05-07 05:59 | 38.06117 | 128.66687 | 257 ft | 9 kts | 51° |
| 2026-05-07 05:59 | 38.06148 | 128.66736 | 256 ft | 0 kts | 51° |
| 2026-05-07 06:00 | 38.06149 | 128.66737 | 256 ft | 0 kts | 47° |
| 2026-05-07 06:00 | 38.06162 | 128.66757 | 256 ft | 6 kts | 51° |
| 2026-05-07 06:00 | 38.06189 | 128.66832 | 255 ft | 12 kts | 101° |
| 2026-05-07 06:00 | 38.06122 | 128.66925 | 254 ft | 15 kts | 140° |
| 2026-05-07 06:01 | 38.06038 | 128.67012 | 253 ft | 15 kts | 140° |
| 2026-05-07 06:01 | 38.05957 | 128.67094 | 253 ft | 14 kts | 141° |
| 2026-05-07 06:01 | 38.05880 | 128.67174 | 253 ft | 13 kts | 141° |
| 2026-05-07 06:01 | 38.05806 | 128.67248 | 253 ft | 13 kts | 142° |
| 2026-05-07 06:02 | 38.05733 | 128.67323 | 252 ft | 14 kts | 141° |
| 2026-05-07 06:02 | 38.05641 | 128.67416 | 250 ft | 18 kts | 142° |
| 2026-05-07 06:02 | 38.05529 | 128.67534 | 245 ft | 23 kts | 134° |
| 2026-05-07 06:02 | 38.05396 | 128.67668 | 237 ft | 25 kts | 138° |
| 2026-05-07 06:03 | 38.05269 | 128.67737 | 233 ft | 14 kts | 148° |
| 2026-05-07 06:03 | 38.05287 | 128.67783 | 230 ft | 10 kts | 304° |
| 2026-05-07 06:03 | 38.05319 | 128.67746 | 233 ft | 0 kts | 320° |
| 2026-05-07 06:04 | 38.05445 | 128.67619 | 241 ft | 48 kts | 320° |
| 2026-05-07 06:04 | 38.05686 | 128.67371 | 273 ft | 71 kts | 322° |
| 2026-05-07 06:04 | 38.05796 | 128.67255 | 287 ft | 77 kts | 322° |
| 2026-05-07 06:05 | 38.06220 | 128.66811 | 442 ft | 81 kts | 324° |
| 2026-05-07 06:05 | 38.06657 | 128.66348 | 627 ft | 81 kts | 322° |
| 2026-05-07 06:05 | 38.07106 | 128.65922 | 799 ft | 81 kts | 329° |
| 2026-05-07 06:05 | 38.07297 | 128.65764 | 870 ft | 81 kts | 332° |
| 2026-05-07 06:06 | 38.07376 | 128.65703 | 890 ft | 82 kts | 332° |
| 2026-05-07 06:06 | 38.07896 | 128.65425 | 1052 ft | 81 kts | 359° |
| 2026-05-07 06:06 | 38.08416 | 128.65640 | 1196 ft | 80 kts | 43° |
| 2026-05-07 06:07 | 38.08812 | 128.66154 | 1327 ft | 82 kts | 61° |
| 2026-05-07 06:07 | 38.08750 | 128.66829 | 1464 ft | 85 kts | 126° |
| 2026-05-07 06:07 | 38.08350 | 128.67395 | 1621 ft | 84 kts | 135° |
| 2026-05-07 06:07 | 38.07891 | 128.67864 | 1745 ft | 88 kts | 140° |
| 2026-05-07 06:08 | 38.07400 | 128.68361 | 1830 ft | 94 kts | 140° |
| 2026-05-07 06:08 | 38.06868 | 128.68893 | 1848 ft | 96 kts | 139° |
| 2026-05-07 06:08 | 38.06342 | 128.69447 | 1825 ft | 100 kts | 140° |
| 2026-05-07 06:08 | 38.05796 | 128.70009 | 1815 ft | 100 kts | 138° |
| 2026-05-07 06:09 | 38.05264 | 128.70592 | 1797 ft | 98 kts | 137° |
| 2026-05-07 06:09 | 38.04781 | 128.71118 | 1681 ft | 86 kts | 149° |
| 2026-05-07 06:09 | 38.04239 | 128.71075 | 1588 ft | 82 kts | 210° |
| 2026-05-07 06:09 | 38.03786 | 128.70638 | 1482 ft | 78 kts | 226° |
| 2026-05-07 06:10 | 38.03585 | 128.69998 | 1267 ft | 79 kts | 266° |
| 2026-05-07 06:10 | 38.03757 | 128.69398 | 1050 ft | 75 kts | 310° |
| 2026-05-07 06:10 | 38.04143 | 128.68953 | 801 ft | 75 kts | 320° |
| 2026-05-07 06:10 | 38.04543 | 128.68547 | 567 ft | 73 kts | 317° |
| 2026-05-07 06:11 | 38.04931 | 128.68146 | 369 ft | 74 kts | 316° |
| 2026-05-07 06:11 | 38.05315 | 128.67750 | 276 ft | 67 kts | 319° |
| 2026-05-07 06:11 | 38.05623 | 128.67436 | 249 ft | 44 kts | 322° |
| 2026-05-07 06:11 | 38.05815 | 128.67239 | 253 ft | 58 kts | 322° |
| 2026-05-07 06:12 | 38.05996 | 128.67053 | 263 ft | 74 kts | 321° |
| 2026-05-07 06:13 | 38.06395 | 128.66638 | 390 ft | 81 kts | 320° |
| 2026-05-07 06:13 | 38.06524 | 128.66499 | 445 ft | 81 kts | 320° |
| 2026-05-07 06:13 | 38.06784 | 128.66209 | 550 ft | 83 kts | 320° |
| 2026-05-07 06:14 | 38.06968 | 128.66010 | 592 ft | 86 kts | 321° |
| 2026-05-07 06:15 | 38.07437 | 128.65625 | 787 ft | 82 kts | 350° |
| 2026-05-07 06:15 | 38.07919 | 128.65831 | 975 ft | 76 kts | 46° |
| 2026-05-07 06:15 | 38.08242 | 128.66350 | 1115 ft | 79 kts | 55° |
| 2026-05-07 06:15 | 38.08447 | 128.66997 | 1252 ft | 82 kts | 91° |
| 2026-05-07 06:16 | 38.08169 | 128.67651 | 1378 ft | 88 kts | 136° |
| 2026-05-07 06:16 | 38.07768 | 128.68172 | 1569 ft | 83 kts | 127° |
| 2026-05-07 06:16 | 38.07390 | 128.68738 | 1706 ft | 85 kts | 126° |
| 2026-05-07 06:16 | 38.06975 | 128.69310 | 1771 ft | 95 kts | 131° |
| 2026-05-07 06:17 | 38.06484 | 128.69905 | 1764 ft | 97 kts | 135° |
| 2026-05-07 06:17 | 38.05972 | 128.70465 | 1773 ft | 97 kts | 136° |
| 2026-05-07 06:17 | 38.05481 | 128.71062 | 1758 ft | 98 kts | 131° |
| 2026-05-07 06:17 | 38.05006 | 128.71600 | 1745 ft | 81 kts | 154° |
| 2026-05-07 06:18 | 38.04470 | 128.71590 | 1636 ft | 77 kts | 204° |
| 2026-05-07 06:18 | 38.04035 | 128.71196 | 1520 ft | 76 kts | 217° |
| 2026-05-07 06:18 | 38.03631 | 128.70763 | 1391 ft | 77 kts | 227° |
| 2026-05-07 06:18 | 38.03473 | 128.70122 | 1266 ft | 74 kts | 273° |
| 2026-05-07 06:19 | 38.03641 | 128.69530 | 1094 ft | 73 kts | 310° |
| 2026-05-07 06:19 | 38.04011 | 128.69090 | 849 ft | 74 kts | 321° |
| 2026-05-07 06:19 | 38.04411 | 128.68686 | 622 ft | 72 kts | 319° |
| 2026-05-07 06:19 | 38.04791 | 128.68289 | 416 ft | 71 kts | 319° |
| 2026-05-07 06:20 | 38.05170 | 128.67899 | 314 ft | 68 kts | 320° |
| 2026-05-07 06:20 | 38.05519 | 128.67543 | 246 ft | 54 kts | 321° |
| 2026-05-07 06:20 | 38.05756 | 128.67300 | 252 ft | 38 kts | 321° |
| 2026-05-07 06:20 | 38.06078 | 128.66968 | 272 ft | 75 kts | 319° |
| 2026-05-07 06:21 | 38.06504 | 128.66540 | 452 ft | 76 kts | 323° |
| 2026-05-07 06:21 | 38.06926 | 128.66101 | 623 ft | 79 kts | 319° |
| 2026-05-07 06:21 | 38.07318 | 128.65610 | 790 ft | 80 kts | 317° |
| 2026-05-07 06:21 | 38.07825 | 128.65359 | 957 ft | 78 kts | 7° |
| 2026-05-07 06:22 | 38.08285 | 128.65643 | 1129 ft | 75 kts | 44° |
| 2026-05-07 06:22 | 38.09110 | 128.66545 | 1414 ft | 80 kts | 67° |
| 2026-05-07 06:22 | 38.09062 | 128.67244 | 1551 ft | 84 kts | 121° |
| 2026-05-07 06:23 | 38.08627 | 128.67773 | 1682 ft | 88 kts | 138° |
| 2026-05-07 06:23 | 38.08141 | 128.68243 | 1804 ft | 91 kts | 139° |
| 2026-05-07 06:23 | 38.07613 | 128.68770 | 1821 ft | 96 kts | 137° |
| 2026-05-07 06:23 | 38.07108 | 128.69328 | 1834 ft | 97 kts | 134° |
| 2026-05-07 06:24 | 38.06622 | 128.69934 | 1847 ft | 98 kts | 133° |
| 2026-05-07 06:24 | 38.06131 | 128.70546 | 1852 ft | 99 kts | 133° |
| 2026-05-07 06:24 | 38.05694 | 128.71094 | 1790 ft | 80 kts | 134° |
| 2026-05-07 06:24 | 38.05289 | 128.71549 | 1673 ft | 80 kts | 143° |
| 2026-05-07 06:25 | 38.04731 | 128.71625 | 1624 ft | 86 kts | 194° |
| 2026-05-07 06:25 | 38.04255 | 128.71216 | 1523 ft | 78 kts | 224° |
| 2026-05-07 06:25 | 38.03915 | 128.70721 | 1371 ft | 74 kts | 227° |
| 2026-05-07 06:25 | 38.03629 | 128.70181 | 1220 ft | 73 kts | 257° |
| 2026-05-07 06:26 | 38.03662 | 128.69554 | 1035 ft | 72 kts | 299° |
| 2026-05-07 06:26 | 38.03995 | 128.69112 | 825 ft | 70 kts | 326° |
| 2026-05-07 06:26 | 38.04371 | 128.68732 | 617 ft | 69 kts | 319° |
| 2026-05-07 06:26 | 38.04741 | 128.68343 | 428 ft | 68 kts | 319° |
| 2026-05-07 06:27 | 38.05110 | 128.67960 | 321 ft | 68 kts | 320° |
| 2026-05-07 06:27 | 38.05461 | 128.67601 | 247 ft | 58 kts | 320° |
| 2026-05-07 06:27 | 38.05711 | 128.67346 | 252 ft | 36 kts | 323° |
| 2026-05-07 06:27 | 38.06018 | 128.67032 | 264 ft | 74 kts | 322° |
| 2026-05-07 06:28 | 38.06437 | 128.66595 | 427 ft | 78 kts | 320° |
| 2026-05-07 06:28 | 38.06873 | 128.66177 | 580 ft | 80 kts | 347° |
| 2026-05-07 06:28 | 38.07301 | 128.66458 | 772 ft | 73 kts | 63° |
| 2026-05-07 06:28 | 38.07389 | 128.67079 | 893 ft | 80 kts | 110° |
| 2026-05-07 06:29 | 38.07015 | 128.67662 | 1031 ft | 85 kts | 134° |
| 2026-05-07 06:29 | 38.06568 | 128.68224 | 1089 ft | 95 kts | 132° |
| 2026-05-07 06:29 | 38.06107 | 128.68828 | 1138 ft | 98 kts | 133° |
| 2026-05-07 06:29 | 38.05605 | 128.69406 | 1169 ft | 95 kts | 137° |
| 2026-05-07 06:30 | 38.05069 | 128.69922 | 1164 ft | 97 kts | 140° |
| 2026-05-07 06:30 | 38.04550 | 128.70480 | 1181 ft | 96 kts | 140° |
| 2026-05-07 06:30 | 38.03930 | 128.70522 | 1205 ft | 87 kts | 212° |
| 2026-05-07 06:30 | 38.03586 | 128.69971 | 1096 ft | 75 kts | 266° |
| 2026-05-07 06:31 | 38.03741 | 128.69374 | 911 ft | 70 kts | 318° |
| 2026-05-07 06:31 | 38.04111 | 128.68996 | 698 ft | 69 kts | 316° |
| 2026-05-07 06:31 | 38.04485 | 128.68610 | 527 ft | 69 kts | 319° |
| 2026-05-07 06:31 | 38.04848 | 128.68233 | 384 ft | 66 kts | 318° |
| 2026-05-07 06:32 | 38.05206 | 128.67862 | 302 ft | 67 kts | 319° |
| 2026-05-07 06:32 | 38.05540 | 128.67517 | 246 ft | 49 kts | 323° |
| 2026-05-07 06:32 | 38.05756 | 128.67302 | 252 ft | 31 kts | 320° |
| 2026-05-07 06:32 | 38.05902 | 128.67151 | 253 ft | 25 kts | 320° |
| 2026-05-07 06:33 | 38.06163 | 128.66882 | 262 ft | 67 kts | 321° |
| 2026-05-07 06:33 | 38.06510 | 128.66509 | 442 ft | 68 kts | 324° |
| 2026-05-07 06:33 | 38.06902 | 128.66170 | 598 ft | 72 kts | 341° |
| 2026-05-07 06:33 | 38.07310 | 128.66359 | 739 ft | 71 kts | 58° |
| 2026-05-07 06:34 | 38.07325 | 128.66974 | 858 ft | 79 kts | 115° |
| 2026-05-07 06:34 | 38.06992 | 128.67509 | 1062 ft | 76 kts | 130° |
| 2026-05-07 06:34 | 38.06583 | 128.67975 | 1220 ft | 79 kts | 131° |
| 2026-05-07 06:34 | 38.06222 | 128.68509 | 1312 ft | 85 kts | 128° |
| 2026-05-07 06:35 | 38.05807 | 128.69086 | 1342 ft | 90 kts | 130° |
| 2026-05-07 06:35 | 38.05389 | 128.69690 | 1371 ft | 93 kts | 128° |
| 2026-05-07 06:35 | 38.04965 | 128.70325 | 1396 ft | 95 kts | 127° |
| 2026-05-07 06:35 | 38.04506 | 128.70840 | 1385 ft | 80 kts | 166° |
| 2026-05-07 06:36 | 38.04026 | 128.70601 | 1281 ft | 77 kts | 222° |
| 2026-05-07 06:37 | 38.03969 | 128.70525 | 1257 ft | 78 kts | 229° |
| 2026-05-07 06:38 | 38.03766 | 128.69946 | 1187 ft | 61 kts | 258° |
| 2026-05-07 06:38 | 38.03817 | 128.69376 | 970 ft | 68 kts | 301° |
| 2026-05-07 06:38 | 38.04146 | 128.68947 | 764 ft | 67 kts | 321° |
| 2026-05-07 06:38 | 38.04507 | 128.68585 | 567 ft | 67 kts | 318° |
| 2026-05-07 06:39 | 38.04869 | 128.68208 | 390 ft | 68 kts | 316° |
| 2026-05-07 06:39 | 38.05226 | 128.67844 | 296 ft | 64 kts | 318° |
| 2026-05-07 06:39 | 38.05541 | 128.67519 | 246 ft | 45 kts | 322° |
| 2026-05-07 06:39 | 38.05799 | 128.67248 | 255 ft | 62 kts | 323° |
| 2026-05-07 06:40 | 38.06177 | 128.66847 | 356 ft | 79 kts | 319° |
| 2026-05-07 06:40 | 38.06594 | 128.66835 | 581 ft | 66 kts | 52° |
| 2026-05-07 06:40 | 38.06575 | 128.67390 | 751 ft | 71 kts | 102° |
| 2026-05-07 06:40 | 38.06394 | 128.68002 | 917 ft | 75 kts | 118° |
| 2026-05-07 06:41 | 38.06091 | 128.68556 | 1088 ft | 78 kts | 128° |
| 2026-05-07 06:41 | 38.05761 | 128.69122 | 1215 ft | 85 kts | 121° |
| 2026-05-07 06:41 | 38.05403 | 128.69786 | 1285 ft | 95 kts | 122° |
| 2026-05-07 06:41 | 38.05013 | 128.70352 | 1285 ft | 74 kts | 138° |
| 2026-05-07 06:42 | 38.04538 | 128.70596 | 1119 ft | 79 kts | 183° |
| 2026-05-07 06:42 | 38.04062 | 128.70317 | 1008 ft | 76 kts | 215° |
| 2026-05-07 06:42 | 38.03768 | 128.69807 | 905 ft | 68 kts | 256° |
| 2026-05-07 06:42 | 38.03874 | 128.69238 | 766 ft | 72 kts | 315° |
| 2026-05-07 06:43 | 38.04255 | 128.68849 | 621 ft | 70 kts | 321° |
| 2026-05-07 06:43 | 38.04636 | 128.68455 | 460 ft | 71 kts | 319° |
| 2026-05-07 06:43 | 38.05009 | 128.68059 | 361 ft | 69 kts | 321° |
| 2026-05-07 06:43 | 38.05373 | 128.67691 | 262 ft | 64 kts | 320° |
| 2026-05-07 06:44 | 38.05655 | 128.67404 | 251 ft | 39 kts | 322° |
| 2026-05-07 06:44 | 38.05953 | 128.67101 | 254 ft | 74 kts | 321° |
| 2026-05-07 06:44 | 38.06401 | 128.66649 | 360 ft | 86 kts | 336° |
| 2026-05-07 06:44 | 38.06708 | 128.67041 | 564 ft | 77 kts | 94° |
| 2026-05-07 06:45 | 38.06553 | 128.67725 | 702 ft | 84 kts | 110° |
| 2026-05-07 06:45 | 38.06291 | 128.68391 | 793 ft | 95 kts | 114° |
| 2026-05-07 06:45 | 38.05954 | 128.69073 | 931 ft | 89 kts | 124° |
| 2026-05-07 06:45 | 38.05557 | 128.69699 | 950 ft | 92 kts | 128° |
| 2026-05-07 06:46 | 38.05122 | 128.70322 | 971 ft | 94 kts | 130° |
| 2026-05-07 06:46 | 38.04607 | 128.70749 | 958 ft | 86 kts | 176° |
| 2026-05-07 06:46 | 38.04053 | 128.70483 | 789 ft | 87 kts | 219° |
| 2026-05-07 06:46 | 38.03695 | 128.69940 | 737 ft | 72 kts | 249° |
| 2026-05-07 06:47 | 38.03760 | 128.69385 | 671 ft | 65 kts | 311° |
| 2026-05-07 06:47 | 38.04106 | 128.68994 | 568 ft | 68 kts | 318° |
| 2026-05-07 06:47 | 38.04478 | 128.68616 | 487 ft | 68 kts | 319° |
| 2026-05-07 06:47 | 38.04850 | 128.68233 | 395 ft | 69 kts | 319° |
| 2026-05-07 06:48 | 38.05210 | 128.67857 | 307 ft | 66 kts | 319° |
| 2026-05-07 06:48 | 38.05558 | 128.67502 | 250 ft | 55 kts | 321° |
| 2026-05-07 06:48 | 38.05807 | 128.67248 | 253 ft | 43 kts | 321° |
| 2026-05-07 06:48 | 38.06025 | 128.67026 | 253 ft | 36 kts | 321° |
| 2026-05-07 06:49 | 38.06187 | 128.66849 | 255 ft | 20 kts | 287° |
| 2026-05-07 06:49 | 38.06134 | 128.66715 | 257 ft | 15 kts | 230° |
| 2026-05-07 06:49 | 38.06070 | 128.66612 | 257 ft | 14 kts | 235° |
| 2026-05-07 06:49 | 38.06109 | 128.66499 | 258 ft | 15 kts | 315° |
| 2026-05-07 06:50 | 38.06117 | 128.66441 | 259 ft | 7 kts | 232° |
| 2026-05-07 06:50 | 38.06106 | 128.66425 | 260 ft | 0 kts | 234° |